sensor_id;sensor_type;location;lat;lon;timestamp;P1;durP1;ratioP1;P2;durP2;ratioP2
43883;SDS011;29544;52.018;5.810;2023-04-08T00:02:08;0.70;;;0.60;;
43883;SDS011;29544;52.018;5.810;2023-04-08T00:04:34;0.87;;;0.73;;
43883;SDS011;29544;52.018;5.810;2023-04-08T00:07:00;0.70;;;0.70;;
43883;SDS011;29544;52.018;5.810;2023-04-08T00:09:25;0.40;;;0.40;;
43883;SDS011;29544;52.018;5.810;2023-04-08T00:11:51;0.60;;;0.53;;
43883;SDS011;29544;52.018;5.810;2023-04-08T00:14:17;0.60;;;0.60;;
43883;SDS011;29544;52.018;5.810;2023-04-08T00:16:42;1.13;;;0.60;;
43883;SDS011;29544;52.018;5.810;2023-04-08T00:19:08;0.70;;;0.70;;
43883;SDS011;29544;52.018;5.810;2023-04-08T00:21:33;0.73;;;0.67;;
43883;SDS011;29544;52.018;5.810;2023-04-08T00:23:59;0.77;;;0.57;;
43883;SDS011;29544;52.018;5.810;2023-04-08T00:26:25;0.67;;;0.60;;
43883;SDS011;29544;52.018;5.810;2023-04-08T00:28:51;0.80;;;0.80;;
43883;SDS011;29544;52.018;5.810;2023-04-08T00:31:16;1.20;;;0.87;;
43883;SDS011;29544;52.018;5.810;2023-04-08T00:33:42;0.90;;;0.73;;
43883;SDS011;29544;52.018;5.810;2023-04-08T00:36:07;0.60;;;0.60;;
43883;SDS011;29544;52.018;5.810;2023-04-08T00:38:33;0.50;;;0.50;;
43883;SDS011;29544;52.018;5.810;2023-04-08T00:40:58;0.57;;;0.50;;
43883;SDS011;29544;52.018;5.810;2023-04-08T00:43:24;0.60;;;0.60;;
43883;SDS011;29544;52.018;5.810;2023-04-08T00:45:49;0.43;;;0.43;;
43883;SDS011;29544;52.018;5.810;2023-04-08T00:48:15;0.50;;;0.50;;
43883;SDS011;29544;52.018;5.810;2023-04-08T00:50:44;0.63;;;0.60;;
43883;SDS011;29544;52.018;5.810;2023-04-08T00:53:11;0.43;;;0.43;;
43883;SDS011;29544;52.018;5.810;2023-04-08T00:55:39;0.50;;;0.50;;
43883;SDS011;29544;52.018;5.810;2023-04-08T00:58:05;0.60;;;0.60;;
43883;SDS011;29544;52.018;5.810;2023-04-08T01:00:31;0.60;;;0.57;;
43883;SDS011;29544;52.018;5.810;2023-04-08T01:03:13;0.50;;;0.50;;
43883;SDS011;29544;52.018;5.810;2023-04-08T01:08:35;0.45;;;0.43;;
43883;SDS011;29544;52.018;5.810;2023-04-08T01:11:04;0.60;;;0.60;;
43883;SDS011;29544;52.018;5.810;2023-04-08T01:13:35;0.50;;;0.50;;
43883;SDS011;29544;52.018;5.810;2023-04-08T01:16:03;0.68;;;0.60;;
43883;SDS011;29544;52.018;5.810;2023-04-08T01:18:30;0.40;;;0.40;;
43883;SDS011;29544;52.018;5.810;2023-04-08T01:20:59;0.40;;;0.40;;
43883;SDS011;29544;52.018;5.810;2023-04-08T01:26:22;1.08;;;0.40;;
43883;SDS011;29544;52.018;5.810;2023-04-08T01:28:51;1.00;;;0.50;;
43883;SDS011;29544;52.018;5.810;2023-04-08T01:31:19;0.60;;;0.60;;
43883;SDS011;29544;52.018;5.810;2023-04-08T01:33:47;0.52;;;0.52;;
43883;SDS011;29544;52.018;5.810;2023-04-08T01:36:14;0.43;;;0.43;;
43883;SDS011;29544;52.018;5.810;2023-04-08T01:38:41;0.45;;;0.45;;
43883;SDS011;29544;52.018;5.810;2023-04-08T01:43:34;0.40;;;0.40;;
43883;SDS011;29544;52.018;5.810;2023-04-08T01:46:02;0.70;;;0.60;;
43883;SDS011;29544;52.018;5.810;2023-04-08T01:48:29;1.15;;;0.50;;
43883;SDS011;29544;52.018;5.810;2023-04-08T01:50:55;0.60;;;0.60;;
43883;SDS011;29544;52.018;5.810;2023-04-08T01:53:21;0.40;;;0.40;;
43883;SDS011;29544;52.018;5.810;2023-04-08T01:55:48;0.47;;;0.45;;
43883;SDS011;29544;52.018;5.810;2023-04-08T01:58:19;0.30;;;0.30;;
43883;SDS011;29544;52.018;5.810;2023-04-08T02:00:46;1.60;;;0.40;;
43883;SDS011;29544;52.018;5.810;2023-04-08T02:03:12;0.32;;;0.32;;
43883;SDS011;29544;52.018;5.810;2023-04-08T02:05:41;0.45;;;0.40;;
43883;SDS011;29544;52.018;5.810;2023-04-08T02:08:06;0.40;;;0.40;;
43883;SDS011;29544;52.018;5.810;2023-04-08T02:10:32;0.40;;;0.40;;
43883;SDS011;29544;52.018;5.810;2023-04-08T02:12:57;0.53;;;0.53;;
43883;SDS011;29544;52.018;5.810;2023-04-08T02:15:23;0.40;;;0.40;;
43883;SDS011;29544;52.018;5.810;2023-04-08T02:17:58;0.50;;;0.50;;
43883;SDS011;29544;52.018;5.810;2023-04-08T02:20:41;0.40;;;0.40;;
43883;SDS011;29544;52.018;5.810;2023-04-08T02:23:09;0.57;;;0.57;;
43883;SDS011;29544;52.018;5.810;2023-04-08T02:25:40;0.50;;;0.50;;
43883;SDS011;29544;52.018;5.810;2023-04-08T02:28:09;0.77;;;0.50;;
43883;SDS011;29544;52.018;5.810;2023-04-08T02:30:36;0.50;;;0.50;;
43883;SDS011;29544;52.018;5.810;2023-04-08T02:33:10;0.38;;;0.38;;
43883;SDS011;29544;52.018;5.810;2023-04-08T02:35:36;0.30;;;0.30;;
43883;SDS011;29544;52.018;5.810;2023-04-08T02:38:05;0.40;;;0.40;;
43883;SDS011;29544;52.018;5.810;2023-04-08T02:40:31;0.23;;;0.23;;
43883;SDS011;29544;52.018;5.810;2023-04-08T02:42:58;0.50;;;0.40;;
43883;SDS011;29544;52.018;5.810;2023-04-08T02:47:51;0.82;;;0.60;;
43883;SDS011;29544;52.018;5.810;2023-04-08T02:50:17;0.40;;;0.30;;
43883;SDS011;29544;52.018;5.810;2023-04-08T02:52:42;0.77;;;0.33;;
43883;SDS011;29544;52.018;5.810;2023-04-08T02:55:09;0.40;;;0.40;;
43883;SDS011;29544;52.018;5.810;2023-04-08T02:57:35;0.43;;;0.40;;
43883;SDS011;29544;52.018;5.810;2023-04-08T03:00:03;0.38;;;0.38;;
43883;SDS011;29544;52.018;5.810;2023-04-08T03:02:29;0.38;;;0.38;;
43883;SDS011;29544;52.018;5.810;2023-04-08T03:04:55;0.40;;;0.40;;
43883;SDS011;29544;52.018;5.810;2023-04-08T03:07:20;0.30;;;0.30;;
43883;SDS011;29544;52.018;5.810;2023-04-08T03:09:46;0.60;;;0.60;;
43883;SDS011;29544;52.018;5.810;2023-04-08T03:12:11;0.50;;;0.50;;
43883;SDS011;29544;52.018;5.810;2023-04-08T03:14:37;0.37;;;0.37;;
43883;SDS011;29544;52.018;5.810;2023-04-08T03:17:02;0.40;;;0.40;;
43883;SDS011;29544;52.018;5.810;2023-04-08T03:19:28;0.40;;;0.40;;
43883;SDS011;29544;52.018;5.810;2023-04-08T03:21:53;0.40;;;0.40;;
43883;SDS011;29544;52.018;5.810;2023-04-08T03:24:19;0.53;;;0.40;;
43883;SDS011;29544;52.018;5.810;2023-04-08T03:26:44;0.50;;;0.50;;
43883;SDS011;29544;52.018;5.810;2023-04-08T03:29:10;0.50;;;0.50;;
43883;SDS011;29544;52.018;5.810;2023-04-08T03:31:35;0.83;;;0.43;;
43883;SDS011;29544;52.018;5.810;2023-04-08T03:34:01;0.40;;;0.40;;
43883;SDS011;29544;52.018;5.810;2023-04-08T03:36:26;0.50;;;0.50;;
43883;SDS011;29544;52.018;5.810;2023-04-08T03:38:52;0.40;;;0.40;;
43883;SDS011;29544;52.018;5.810;2023-04-08T03:41:17;0.40;;;0.40;;
43883;SDS011;29544;52.018;5.810;2023-04-08T03:43:43;0.50;;;0.50;;
43883;SDS011;29544;52.018;5.810;2023-04-08T03:46:08;0.40;;;0.33;;
43883;SDS011;29544;52.018;5.810;2023-04-08T03:48:34;6.93;;;0.50;;
43883;SDS011;29544;52.018;5.810;2023-04-08T03:51:00;0.50;;;0.50;;
43883;SDS011;29544;52.018;5.810;2023-04-08T03:53:25;0.30;;;0.30;;
43883;SDS011;29544;52.018;5.810;2023-04-08T03:55:53;0.43;;;0.40;;
43883;SDS011;29544;52.018;5.810;2023-04-08T03:58:19;0.30;;;0.30;;
43883;SDS011;29544;52.018;5.810;2023-04-08T04:00:44;0.50;;;0.40;;
43883;SDS011;29544;52.018;5.810;2023-04-08T04:03:10;1.07;;;0.40;;
43883;SDS011;29544;52.018;5.810;2023-04-08T04:08:02;0.50;;;0.40;;
43883;SDS011;29544;52.018;5.810;2023-04-08T04:10:28;0.30;;;0.30;;
43883;SDS011;29544;52.018;5.810;2023-04-08T04:12:54;0.50;;;0.50;;
43883;SDS011;29544;52.018;5.810;2023-04-08T04:15:19;0.43;;;0.40;;
43883;SDS011;29544;52.018;5.810;2023-04-08T04:17:46;0.97;;;0.40;;
43883;SDS011;29544;52.018;5.810;2023-04-08T04:20:13;0.30;;;0.30;;
43883;SDS011;29544;52.018;5.810;2023-04-08T04:22:38;0.50;;;0.50;;
43883;SDS011;29544;52.018;5.810;2023-04-08T04:25:04;1.13;;;0.50;;
43883;SDS011;29544;52.018;5.810;2023-04-08T04:27:30;0.30;;;0.30;;
43883;SDS011;29544;52.018;5.810;2023-04-08T04:29:55;0.40;;;0.40;;
43883;SDS011;29544;52.018;5.810;2023-04-08T04:32:21;1.03;;;0.60;;
43883;SDS011;29544;52.018;5.810;2023-04-08T04:34:46;0.63;;;0.40;;
43883;SDS011;29544;52.018;5.810;2023-04-08T04:37:12;0.30;;;0.30;;
43883;SDS011;29544;52.018;5.810;2023-04-08T04:39:37;0.40;;;0.40;;
43883;SDS011;29544;52.018;5.810;2023-04-08T04:42:03;0.40;;;0.40;;
43883;SDS011;29544;52.018;5.810;2023-04-08T04:44:28;0.30;;;0.30;;
43883;SDS011;29544;52.018;5.810;2023-04-08T04:46:54;1.27;;;0.47;;
43883;SDS011;29544;52.018;5.810;2023-04-08T04:49:19;0.40;;;0.40;;
43883;SDS011;29544;52.018;5.810;2023-04-08T04:51:45;0.20;;;0.20;;
43883;SDS011;29544;52.018;5.810;2023-04-08T04:54:11;0.27;;;0.27;;
43883;SDS011;29544;52.018;5.810;2023-04-08T04:56:36;0.40;;;0.40;;
43883;SDS011;29544;52.018;5.810;2023-04-08T04:59:02;0.33;;;0.20;;
43883;SDS011;29544;52.018;5.810;2023-04-08T05:01:29;0.28;;;0.20;;
43883;SDS011;29544;52.018;5.810;2023-04-08T05:03:54;0.60;;;0.30;;
43883;SDS011;29544;52.018;5.810;2023-04-08T05:06:21;0.47;;;0.47;;
43883;SDS011;29544;52.018;5.810;2023-04-08T05:08:47;0.40;;;0.40;;
43883;SDS011;29544;52.018;5.810;2023-04-08T05:11:13;0.40;;;0.40;;
43883;SDS011;29544;52.018;5.810;2023-04-08T05:13:38;0.33;;;0.33;;
43883;SDS011;29544;52.018;5.810;2023-04-08T05:16:04;0.47;;;0.47;;
43883;SDS011;29544;52.018;5.810;2023-04-08T05:18:30;0.85;;;0.35;;
43883;SDS011;29544;52.018;5.810;2023-04-08T05:20:55;0.60;;;0.43;;
43883;SDS011;29544;52.018;5.810;2023-04-08T05:23:21;1.13;;;0.30;;
43883;SDS011;29544;52.018;5.810;2023-04-08T05:25:46;0.30;;;0.30;;
43883;SDS011;29544;52.018;5.810;2023-04-08T05:28:12;0.47;;;0.33;;
43883;SDS011;29544;52.018;5.810;2023-04-08T05:30:37;0.40;;;0.33;;
43883;SDS011;29544;52.018;5.810;2023-04-08T05:33:03;0.40;;;0.27;;
43883;SDS011;29544;52.018;5.810;2023-04-08T05:35:29;0.57;;;0.30;;
43883;SDS011;29544;52.018;5.810;2023-04-08T05:37:54;0.33;;;0.33;;
43883;SDS011;29544;52.018;5.810;2023-04-08T05:40:20;0.73;;;0.40;;
43883;SDS011;29544;52.018;5.810;2023-04-08T05:42:45;0.33;;;0.33;;
43883;SDS011;29544;52.018;5.810;2023-04-08T05:45:11;0.83;;;0.40;;
43883;SDS011;29544;52.018;5.810;2023-04-08T05:47:36;0.20;;;0.20;;
43883;SDS011;29544;52.018;5.810;2023-04-08T05:50:02;0.47;;;0.37;;
43883;SDS011;29544;52.018;5.810;2023-04-08T05:52:27;0.23;;;0.20;;
43883;SDS011;29544;52.018;5.810;2023-04-08T05:54:53;0.40;;;0.40;;
43883;SDS011;29544;52.018;5.810;2023-04-08T05:57:19;0.50;;;0.40;;
43883;SDS011;29544;52.018;5.810;2023-04-08T05:59:44;3.43;;;0.40;;
43883;SDS011;29544;52.018;5.810;2023-04-08T06:02:10;2.53;;;0.30;;
43883;SDS011;29544;52.018;5.810;2023-04-08T06:04:35;0.30;;;0.30;;
43883;SDS011;29544;52.018;5.810;2023-04-08T06:07:01;0.30;;;0.30;;
43883;SDS011;29544;52.018;5.810;2023-04-08T06:09:27;0.70;;;0.30;;
43883;SDS011;29544;52.018;5.810;2023-04-08T06:11:53;0.80;;;0.50;;
43883;SDS011;29544;52.018;5.810;2023-04-08T06:14:18;0.60;;;0.47;;
43883;SDS011;29544;52.018;5.810;2023-04-08T06:16:47;1.25;;;0.40;;
43883;SDS011;29544;52.018;5.810;2023-04-08T06:19:12;0.50;;;0.50;;
43883;SDS011;29544;52.018;5.810;2023-04-08T06:21:38;0.40;;;0.40;;
43883;SDS011;29544;52.018;5.810;2023-04-08T06:24:03;0.50;;;0.40;;
43883;SDS011;29544;52.018;5.810;2023-04-08T06:26:29;1.17;;;0.50;;
43883;SDS011;29544;52.018;5.810;2023-04-08T06:28:54;0.30;;;0.30;;
43883;SDS011;29544;52.018;5.810;2023-04-08T06:31:20;0.35;;;0.35;;
43883;SDS011;29544;52.018;5.810;2023-04-08T06:33:46;0.53;;;0.53;;
43883;SDS011;29544;52.018;5.810;2023-04-08T06:36:11;0.70;;;0.40;;
43883;SDS011;29544;52.018;5.810;2023-04-08T06:38:37;0.50;;;0.50;;
43883;SDS011;29544;52.018;5.810;2023-04-08T06:41:06;0.50;;;0.50;;
43883;SDS011;29544;52.018;5.810;2023-04-08T06:43:32;0.40;;;0.40;;
43883;SDS011;29544;52.018;5.810;2023-04-08T06:45:59;0.57;;;0.40;;
43883;SDS011;29544;52.018;5.810;2023-04-08T06:48:25;2.00;;;0.67;;
43883;SDS011;29544;52.018;5.810;2023-04-08T06:50:54;0.32;;;0.32;;
43883;SDS011;29544;52.018;5.810;2023-04-08T06:53:23;0.60;;;0.30;;
43883;SDS011;29544;52.018;5.810;2023-04-08T06:55:49;1.38;;;0.63;;
43883;SDS011;29544;52.018;5.810;2023-04-08T06:58:15;0.43;;;0.40;;
43883;SDS011;29544;52.018;5.810;2023-04-08T07:00:41;0.40;;;0.40;;
43883;SDS011;29544;52.018;5.810;2023-04-08T07:03:06;0.23;;;0.23;;
43883;SDS011;29544;52.018;5.810;2023-04-08T07:05:34;0.90;;;0.50;;
43883;SDS011;29544;52.018;5.810;2023-04-08T07:08:01;0.80;;;0.57;;
43883;SDS011;29544;52.018;5.810;2023-04-08T07:10:27;2.20;;;0.50;;
43883;SDS011;29544;52.018;5.810;2023-04-08T07:12:52;1.27;;;0.50;;
43883;SDS011;29544;52.018;5.810;2023-04-08T07:15:18;0.47;;;0.40;;
43883;SDS011;29544;52.018;5.810;2023-04-08T07:17:44;0.80;;;0.50;;
43883;SDS011;29544;52.018;5.810;2023-04-08T07:20:10;1.10;;;0.55;;
43883;SDS011;29544;52.018;5.810;2023-04-08T07:22:37;1.90;;;0.50;;
43883;SDS011;29544;52.018;5.810;2023-04-08T07:25:03;0.75;;;0.68;;
43883;SDS011;29544;52.018;5.810;2023-04-08T07:27:29;2.13;;;0.60;;
43883;SDS011;29544;52.018;5.810;2023-04-08T07:29:54;0.90;;;0.70;;
43883;SDS011;29544;52.018;5.810;2023-04-08T07:32:20;2.13;;;0.73;;
43883;SDS011;29544;52.018;5.810;2023-04-08T07:34:46;0.67;;;0.43;;
43883;SDS011;29544;52.018;5.810;2023-04-08T07:37:12;1.23;;;0.90;;
43883;SDS011;29544;52.018;5.810;2023-04-08T07:39:37;1.70;;;0.70;;
43883;SDS011;29544;52.018;5.810;2023-04-08T07:42:03;0.50;;;0.50;;
43883;SDS011;29544;52.018;5.810;2023-04-08T07:44:28;2.07;;;1.00;;
43883;SDS011;29544;52.018;5.810;2023-04-08T07:46:54;3.10;;;0.93;;
43883;SDS011;29544;52.018;5.810;2023-04-08T07:49:20;1.05;;;0.70;;
43883;SDS011;29544;52.018;5.810;2023-04-08T07:51:45;2.13;;;0.70;;
43883;SDS011;29544;52.018;5.810;2023-04-08T07:54:11;1.60;;;1.20;;
43883;SDS011;29544;52.018;5.810;2023-04-08T07:56:41;1.65;;;0.80;;
43883;SDS011;29544;52.018;5.810;2023-04-08T07:59:08;2.22;;;0.68;;
43883;SDS011;29544;52.018;5.810;2023-04-08T08:01:34;1.30;;;0.68;;
43883;SDS011;29544;52.018;5.810;2023-04-08T08:04:00;0.77;;;0.70;;
43883;SDS011;29544;52.018;5.810;2023-04-08T08:06:25;1.15;;;0.75;;
43883;SDS011;29544;52.018;5.810;2023-04-08T08:08:56;1.17;;;0.63;;
43883;SDS011;29544;52.018;5.810;2023-04-08T08:11:22;0.55;;;0.55;;
43883;SDS011;29544;52.018;5.810;2023-04-08T08:13:47;0.90;;;0.80;;
43883;SDS011;29544;52.018;5.810;2023-04-08T08:16:13;1.23;;;0.60;;
43883;SDS011;29544;52.018;5.810;2023-04-08T08:18:39;1.03;;;0.70;;
43883;SDS011;29544;52.018;5.810;2023-04-08T08:21:05;0.88;;;0.85;;
43883;SDS011;29544;52.018;5.810;2023-04-08T08:23:30;0.73;;;0.70;;
43883;SDS011;29544;52.018;5.810;2023-04-08T08:26:03;1.23;;;0.80;;
43883;SDS011;29544;52.018;5.810;2023-04-08T08:28:30;1.83;;;0.90;;
43883;SDS011;29544;52.018;5.810;2023-04-08T08:30:56;1.83;;;0.90;;
43883;SDS011;29544;52.018;5.810;2023-04-08T08:33:23;1.63;;;0.98;;
43883;SDS011;29544;52.018;5.810;2023-04-08T08:35:49;1.67;;;0.90;;
43883;SDS011;29544;52.018;5.810;2023-04-08T08:38:15;1.42;;;0.95;;
43883;SDS011;29544;52.018;5.810;2023-04-08T08:43:08;0.80;;;0.60;;
43883;SDS011;29544;52.018;5.810;2023-04-08T08:45:37;0.88;;;0.70;;
43883;SDS011;29544;52.018;5.810;2023-04-08T08:48:04;2.90;;;0.80;;
43883;SDS011;29544;52.018;5.810;2023-04-08T08:50:31;1.10;;;0.90;;
43883;SDS011;29544;52.018;5.810;2023-04-08T08:52:57;0.98;;;0.82;;
43883;SDS011;29544;52.018;5.810;2023-04-08T08:55:22;3.37;;;0.97;;
43883;SDS011;29544;52.018;5.810;2023-04-08T08:57:51;3.53;;;1.00;;
43883;SDS011;29544;52.018;5.810;2023-04-08T09:00:17;4.80;;;0.98;;
43883;SDS011;29544;52.018;5.810;2023-04-08T09:02:42;1.00;;;0.80;;
43883;SDS011;29544;52.018;5.810;2023-04-08T09:05:08;1.43;;;0.93;;
43883;SDS011;29544;52.018;5.810;2023-04-08T09:07:35;1.20;;;0.90;;
43883;SDS011;29544;52.018;5.810;2023-04-08T09:10:04;0.90;;;0.75;;
43883;SDS011;29544;52.018;5.810;2023-04-08T09:12:30;1.42;;;0.90;;
43883;SDS011;29544;52.018;5.810;2023-04-08T09:15:05;1.10;;;0.87;;
43883;SDS011;29544;52.018;5.810;2023-04-08T09:17:35;1.23;;;0.98;;
43883;SDS011;29544;52.018;5.810;2023-04-08T09:20:03;1.77;;;1.15;;
43883;SDS011;29544;52.018;5.810;2023-04-08T09:22:54;1.38;;;0.98;;
43883;SDS011;29544;52.018;5.810;2023-04-08T09:25:21;2.15;;;1.45;;
43883;SDS011;29544;52.018;5.810;2023-04-08T09:27:48;2.85;;;1.00;;
43883;SDS011;29544;52.018;5.810;2023-04-08T09:30:14;1.40;;;1.03;;
43883;SDS011;29544;52.018;5.810;2023-04-08T09:35:12;1.48;;;1.10;;
43883;SDS011;29544;52.018;5.810;2023-04-08T09:37:38;1.63;;;1.00;;
43883;SDS011;29544;52.018;5.810;2023-04-08T09:40:03;3.97;;;1.30;;
43883;SDS011;29544;52.018;5.810;2023-04-08T09:42:29;1.42;;;1.17;;
43883;SDS011;29544;52.018;5.810;2023-04-08T09:44:56;1.40;;;1.08;;
43883;SDS011;29544;52.018;5.810;2023-04-08T09:47:24;2.05;;;1.13;;
43883;SDS011;29544;52.018;5.810;2023-04-08T09:49:56;1.92;;;1.30;;
43883;SDS011;29544;52.018;5.810;2023-04-08T09:52:38;1.20;;;1.10;;
43883;SDS011;29544;52.018;5.810;2023-04-08T09:55:08;2.55;;;1.20;;
43883;SDS011;29544;52.018;5.810;2023-04-08T10:00:20;1.90;;;1.10;;
43883;SDS011;29544;52.018;5.810;2023-04-08T10:05:17;2.70;;;1.10;;
43883;SDS011;29544;52.018;5.810;2023-04-08T10:07:45;1.40;;;1.00;;
43883;SDS011;29544;52.018;5.810;2023-04-08T10:10:10;1.33;;;1.10;;
43883;SDS011;29544;52.018;5.810;2023-04-08T10:12:36;2.50;;;1.20;;
43883;SDS011;29544;52.018;5.810;2023-04-08T10:17:50;1.75;;;1.33;;
43883;SDS011;29544;52.018;5.810;2023-04-08T10:20:39;2.30;;;1.42;;
43883;SDS011;29544;52.018;5.810;2023-04-08T10:23:10;1.77;;;1.35;;
43883;SDS011;29544;52.018;5.810;2023-04-08T10:25:38;2.53;;;1.52;;
43883;SDS011;29544;52.018;5.810;2023-04-08T10:33:08;2.42;;;1.50;;
43883;SDS011;29544;52.018;5.810;2023-04-08T10:35:37;1.77;;;1.20;;
43883;SDS011;29544;52.018;5.810;2023-04-08T10:38:26;1.40;;;1.23;;
43883;SDS011;29544;52.018;5.810;2023-04-08T10:40:52;1.23;;;1.13;;
43883;SDS011;29544;52.018;5.810;2023-04-08T10:43:18;2.40;;;1.40;;
43883;SDS011;29544;52.018;5.810;2023-04-08T10:45:44;2.33;;;1.30;;
43883;SDS011;29544;52.018;5.810;2023-04-08T10:48:14;2.57;;;1.10;;
43883;SDS011;29544;52.018;5.810;2023-04-08T10:50:42;2.67;;;1.48;;
43883;SDS011;29544;52.018;5.810;2023-04-08T10:53:35;1.98;;;1.38;;
43883;SDS011;29544;52.018;5.810;2023-04-08T10:56:14;7.00;;;2.08;;
43883;SDS011;29544;52.018;5.810;2023-04-08T11:01:14;1.90;;;1.38;;
43883;SDS011;29544;52.018;5.810;2023-04-08T11:03:40;2.50;;;1.53;;
43883;SDS011;29544;52.018;5.810;2023-04-08T11:06:06;1.88;;;1.20;;
43883;SDS011;29544;52.018;5.810;2023-04-08T11:08:32;3.17;;;1.97;;
43883;SDS011;29544;52.018;5.810;2023-04-08T11:10:59;1.98;;;1.38;;
43883;SDS011;29544;52.018;5.810;2023-04-08T11:13:26;2.08;;;1.50;;
43883;SDS011;29544;52.018;5.810;2023-04-08T11:15:52;2.10;;;1.30;;
43883;SDS011;29544;52.018;5.810;2023-04-08T11:18:19;3.08;;;1.40;;
43883;SDS011;29544;52.018;5.810;2023-04-08T11:20:47;1.58;;;1.45;;
43883;SDS011;29544;52.018;5.810;2023-04-08T11:23:15;1.83;;;1.10;;
43883;SDS011;29544;52.018;5.810;2023-04-08T11:25:41;2.70;;;1.45;;
43883;SDS011;29544;52.018;5.810;2023-04-08T11:28:08;2.08;;;1.40;;
43883;SDS011;29544;52.018;5.810;2023-04-08T11:30:34;3.08;;;1.38;;
43883;SDS011;29544;52.018;5.810;2023-04-08T11:33:00;1.75;;;1.25;;
43883;SDS011;29544;52.018;5.810;2023-04-08T11:35:29;1.83;;;1.40;;
43883;SDS011;29544;52.018;5.810;2023-04-08T11:37:57;3.33;;;1.40;;
43883;SDS011;29544;52.018;5.810;2023-04-08T11:40:23;2.30;;;1.50;;
43883;SDS011;29544;52.018;5.810;2023-04-08T11:42:52;1.50;;;1.40;;
43883;SDS011;29544;52.018;5.810;2023-04-08T11:45:18;2.20;;;1.33;;
43883;SDS011;29544;52.018;5.810;2023-04-08T11:47:45;2.08;;;1.45;;
43883;SDS011;29544;52.018;5.810;2023-04-08T11:50:12;3.35;;;1.55;;
43883;SDS011;29544;52.018;5.810;2023-04-08T11:52:47;2.03;;;1.35;;
43883;SDS011;29544;52.018;5.810;2023-04-08T11:55:27;2.78;;;1.38;;
43883;SDS011;29544;52.018;5.810;2023-04-08T11:57:56;6.22;;;1.55;;
43883;SDS011;29544;52.018;5.810;2023-04-08T12:00:26;2.58;;;1.17;;
43883;SDS011;29544;52.018;5.810;2023-04-08T12:02:52;2.63;;;1.60;;
43883;SDS011;29544;52.018;5.810;2023-04-08T12:05:17;2.53;;;1.70;;
43883;SDS011;29544;52.018;5.810;2023-04-08T12:07:44;3.60;;;1.40;;
43883;SDS011;29544;52.018;5.810;2023-04-08T12:10:10;2.23;;;1.33;;
43883;SDS011;29544;52.018;5.810;2023-04-08T12:12:36;5.47;;;1.45;;
43883;SDS011;29544;52.018;5.810;2023-04-08T12:15:02;4.88;;;2.00;;
43883;SDS011;29544;52.018;5.810;2023-04-08T12:17:28;2.25;;;1.33;;
43883;SDS011;29544;52.018;5.810;2023-04-08T12:19:54;2.30;;;1.42;;
43883;SDS011;29544;52.018;5.810;2023-04-08T12:22:20;6.88;;;1.73;;
43883;SDS011;29544;52.018;5.810;2023-04-08T12:24:45;3.07;;;1.37;;
43883;SDS011;29544;52.018;5.810;2023-04-08T12:27:11;3.87;;;1.37;;
43883;SDS011;29544;52.018;5.810;2023-04-08T12:29:36;2.43;;;1.40;;
43883;SDS011;29544;52.018;5.810;2023-04-08T12:32:02;2.23;;;1.43;;
43883;SDS011;29544;52.018;5.810;2023-04-08T12:34:29;1.63;;;1.33;;
43883;SDS011;29544;52.018;5.810;2023-04-08T12:36:55;3.58;;;1.73;;
43883;SDS011;29544;52.018;5.810;2023-04-08T12:39:20;2.20;;;1.10;;
43883;SDS011;29544;52.018;5.810;2023-04-08T12:41:46;4.93;;;1.33;;
43883;SDS011;29544;52.018;5.810;2023-04-08T12:44:12;2.30;;;1.10;;
43883;SDS011;29544;52.018;5.810;2023-04-08T12:46:37;4.00;;;1.40;;
43883;SDS011;29544;52.018;5.810;2023-04-08T12:49:03;1.70;;;1.20;;
43883;SDS011;29544;52.018;5.810;2023-04-08T12:51:29;2.77;;;1.57;;
43883;SDS011;29544;52.018;5.810;2023-04-08T12:53:55;2.75;;;1.67;;
43883;SDS011;29544;52.018;5.810;2023-04-08T12:56:20;2.87;;;1.23;;
43883;SDS011;29544;52.018;5.810;2023-04-08T12:58:46;3.22;;;1.20;;
43883;SDS011;29544;52.018;5.810;2023-04-08T13:01:12;3.23;;;1.50;;
43883;SDS011;29544;52.018;5.810;2023-04-08T13:03:37;1.90;;;1.20;;
43883;SDS011;29544;52.018;5.810;2023-04-08T13:06:04;2.07;;;1.30;;
43883;SDS011;29544;52.018;5.810;2023-04-08T13:10:55;2.63;;;1.20;;
43883;SDS011;29544;52.018;5.810;2023-04-08T13:13:20;2.27;;;1.30;;
43883;SDS011;29544;52.018;5.810;2023-04-08T13:15:46;3.10;;;1.47;;
43883;SDS011;29544;52.018;5.810;2023-04-08T13:18:12;5.33;;;1.37;;
43883;SDS011;29544;52.018;5.810;2023-04-08T13:20:38;1.73;;;1.30;;
43883;SDS011;29544;52.018;5.810;2023-04-08T13:23:03;4.53;;;1.20;;
43883;SDS011;29544;52.018;5.810;2023-04-08T13:25:29;1.97;;;1.00;;
43883;SDS011;29544;52.018;5.810;2023-04-08T13:27:54;3.08;;;1.20;;
43883;SDS011;29544;52.018;5.810;2023-04-08T13:30:20;2.63;;;1.10;;
43883;SDS011;29544;52.018;5.810;2023-04-08T13:32:46;2.50;;;1.50;;
43883;SDS011;29544;52.018;5.810;2023-04-08T13:35:11;2.07;;;1.27;;
43883;SDS011;29544;52.018;5.810;2023-04-08T13:37:37;1.83;;;1.00;;
43883;SDS011;29544;52.018;5.810;2023-04-08T13:40:02;1.93;;;1.30;;
43883;SDS011;29544;52.018;5.810;2023-04-08T13:42:28;7.20;;;1.42;;
43883;SDS011;29544;52.018;5.810;2023-04-08T13:44:58;2.63;;;1.20;;
43883;SDS011;29544;52.018;5.810;2023-04-08T13:47:23;2.90;;;1.20;;
43883;SDS011;29544;52.018;5.810;2023-04-08T13:49:49;2.43;;;1.20;;
43883;SDS011;29544;52.018;5.810;2023-04-08T13:52:15;2.60;;;1.17;;
43883;SDS011;29544;52.018;5.810;2023-04-08T13:54:41;2.50;;;1.67;;
43883;SDS011;29544;52.018;5.810;2023-04-08T13:57:06;2.70;;;1.10;;
43883;SDS011;29544;52.018;5.810;2023-04-08T13:59:32;1.57;;;1.40;;
43883;SDS011;29544;52.018;5.810;2023-04-08T14:01:57;1.90;;;1.07;;
43883;SDS011;29544;52.018;5.810;2023-04-08T14:04:23;1.93;;;1.10;;
43883;SDS011;29544;52.018;5.810;2023-04-08T14:06:49;1.57;;;1.20;;
43883;SDS011;29544;52.018;5.810;2023-04-08T14:11:41;1.20;;;0.90;;
43883;SDS011;29544;52.018;5.810;2023-04-08T14:14:07;1.70;;;0.97;;
43883;SDS011;29544;52.018;5.810;2023-04-08T14:16:32;2.53;;;1.30;;
43883;SDS011;29544;52.018;5.810;2023-04-08T14:18:59;2.88;;;1.38;;
43883;SDS011;29544;52.018;5.810;2023-04-08T14:21:25;2.67;;;1.40;;
43883;SDS011;29544;52.018;5.810;2023-04-08T14:23:51;1.77;;;1.00;;
43883;SDS011;29544;52.018;5.810;2023-04-08T14:26:17;1.30;;;0.90;;
43883;SDS011;29544;52.018;5.810;2023-04-08T14:28:42;2.57;;;1.07;;
43883;SDS011;29544;52.018;5.810;2023-04-08T14:31:08;2.83;;;1.30;;
43883;SDS011;29544;52.018;5.810;2023-04-08T14:33:33;2.43;;;1.07;;
43883;SDS011;29544;52.018;5.810;2023-04-08T14:35:59;4.67;;;1.00;;
43883;SDS011;29544;52.018;5.810;2023-04-08T14:38:25;3.63;;;1.10;;
43883;SDS011;29544;52.018;5.810;2023-04-08T14:40:51;2.13;;;1.20;;
43883;SDS011;29544;52.018;5.810;2023-04-08T14:43:16;2.00;;;1.47;;
43883;SDS011;29544;52.018;5.810;2023-04-08T14:45:42;2.23;;;1.20;;
43883;SDS011;29544;52.018;5.810;2023-04-08T14:48:08;3.75;;;1.58;;
43883;SDS011;29544;52.018;5.810;2023-04-08T14:50:34;3.70;;;1.37;;
43883;SDS011;29544;52.018;5.810;2023-04-08T14:53:00;2.20;;;1.23;;
43883;SDS011;29544;52.018;5.810;2023-04-08T14:55:26;4.30;;;1.30;;
43883;SDS011;29544;52.018;5.810;2023-04-08T15:00:17;2.35;;;1.30;;
43883;SDS011;29544;52.018;5.810;2023-04-08T15:02:43;2.10;;;1.20;;
43883;SDS011;29544;52.018;5.810;2023-04-08T15:05:08;1.60;;;1.10;;
43883;SDS011;29544;52.018;5.810;2023-04-08T15:07:34;2.03;;;1.20;;
43883;SDS011;29544;52.018;5.810;2023-04-08T15:10:00;2.58;;;1.15;;
43883;SDS011;29544;52.018;5.810;2023-04-08T15:12:26;5.63;;;1.53;;
43883;SDS011;29544;52.018;5.810;2023-04-08T15:14:51;1.40;;;1.10;;
43883;SDS011;29544;52.018;5.810;2023-04-08T15:17:17;3.27;;;1.53;;
43883;SDS011;29544;52.018;5.810;2023-04-08T15:19:42;2.47;;;1.40;;
43883;SDS011;29544;52.018;5.810;2023-04-08T15:22:08;2.57;;;1.47;;
43883;SDS011;29544;52.018;5.810;2023-04-08T15:24:33;2.67;;;1.27;;
43883;SDS011;29544;52.018;5.810;2023-04-08T15:26:59;4.83;;;1.43;;